createdAt,value
2022-09-28T00:02:41.867Z,9.52
2022-09-28T00:07:47.230Z,9.54
2022-09-28T00:12:51.554Z,9.73
2022-09-28T00:17:55.494Z,9.61
2022-09-28T00:23:00.712Z,9.70
2022-09-28T00:28:05.278Z,9.70
2022-09-28T00:33:09.176Z,9.88
2022-09-28T00:38:16.752Z,9.69
2022-09-28T00:43:21.353Z,9.68
2022-09-28T00:48:28.889Z,9.69
2022-09-28T00:53:38.622Z,9.73
2022-09-28T00:58:46.748Z,9.69
2022-09-28T01:03:51.508Z,9.68
2022-09-28T01:09:02.600Z,9.77
2022-09-28T01:14:09.139Z,9.66
2022-09-28T01:19:30.968Z,9.70
2022-09-28T01:24:43.727Z,9.65
2022-09-28T01:29:56.532Z,9.51
2022-09-28T01:35:06.671Z,9.36
2022-09-28T01:40:13.236Z,9.38
2022-09-28T01:45:24.068Z,9.46
2022-09-28T01:50:32.336Z,9.37
2022-09-28T01:55:43.311Z,9.44
2022-09-28T02:00:53.921Z,9.44
2022-09-28T02:06:01.279Z,9.37
2022-09-28T02:11:12.351Z,9.25
2022-09-28T02:16:24.083Z,9.33
2022-09-28T02:21:32.711Z,9.33
2022-09-28T02:26:40.250Z,9.16
2022-09-28T02:31:45.654Z,9.30
2022-09-28T02:36:49.784Z,9.33
2022-09-28T02:42:00.328Z,9.12
2022-09-28T02:47:17.520Z,9.18
2022-09-28T02:52:38.736Z,9.03
2022-09-28T02:57:59.849Z,8.94
2022-09-28T03:03:13.915Z,8.95
2022-09-28T03:08:25.724Z,8.85
2022-09-28T03:13:30.531Z,8.80
2022-09-28T03:18:35.811Z,8.96
2022-09-28T03:23:40.004Z,9.04
2022-09-28T03:28:44.198Z,9.04
2022-09-28T03:33:55.797Z,9.04
2022-09-28T03:38:59.871Z,8.99
2022-09-28T03:44:04.996Z,8.91
2022-09-28T03:49:11.868Z,8.89
2022-09-28T03:54:15.729Z,9.00
2022-09-28T03:59:19.945Z,8.98
2022-09-28T04:04:25.416Z,9.16
2022-09-28T04:09:29.806Z,9.24
2022-09-28T04:14:33.820Z,9.14
2022-09-28T04:19:39.452Z,8.98
2022-09-28T04:25:02.575Z,8.97
2022-09-28T04:30:08.127Z,8.99
2022-09-28T04:35:13.994Z,8.82
2022-09-28T04:40:18.141Z,8.85
2022-09-28T04:45:26.198Z,8.90
2022-09-28T04:50:33.386Z,9.00
2022-09-28T04:55:43.455Z,9.17
2022-09-28T05:00:47.394Z,9.37
2022-09-28T05:06:28.039Z,9.51
2022-09-28T05:11:37.639Z,9.70
2022-09-28T05:16:46.279Z,10.10
2022-09-28T05:22:04.047Z,10.48
2022-09-28T05:27:13.355Z,10.81
2022-09-28T05:32:17.928Z,10.98
2022-09-28T05:37:34.497Z,11.21
2022-09-28T05:42:38.488Z,11.57
2022-09-28T05:47:43.905Z,11.79
2022-09-28T05:53:00.676Z,12.06
2022-09-28T05:58:06.720Z,12.59
2022-09-28T06:03:14.420Z,13.00
2022-09-28T06:08:19.650Z,13.31
2022-09-28T06:13:31.245Z,13.68
2022-09-28T06:18:35.550Z,14.08
2022-09-28T06:23:53.501Z,14.73
2022-09-28T06:28:57.856Z,14.95
2022-09-28T06:34:02.394Z,15.19
2022-09-28T06:39:08.273Z,15.42
2022-09-28T06:44:13.696Z,15.58
2022-09-28T06:49:41.668Z,15.87
2022-09-28T06:55:07.858Z,16.32
2022-09-28T07:00:24.149Z,16.78
2022-09-28T07:05:29.495Z,17.00
2022-09-28T07:10:57.678Z,17.03
2022-09-28T07:16:26.769Z,17.50
2022-09-28T07:21:32.212Z,18.20
2022-09-28T07:26:41.106Z,18.48
2022-09-28T07:32:00.228Z,18.89
2022-09-28T07:37:16.043Z,19.57
2022-09-28T07:42:22.624Z,19.74
2022-09-28T07:47:33.832Z,19.77
2022-09-28T07:53:08.397Z,20.53
2022-09-28T07:58:34.573Z,20.79
2022-09-28T08:03:58.465Z,21.21
2022-09-28T08:09:03.021Z,20.54
2022-09-28T08:14:33.981Z,21.08
2022-09-28T08:20:21.850Z,20.69
2022-09-28T08:25:25.986Z,21.24
2022-09-28T08:30:32.546Z,21.69
2022-09-28T08:35:58.214Z,22.12
2022-09-28T08:41:35.321Z,22.02
2022-09-28T08:47:03.268Z,22.73
2022-09-28T08:52:35.792Z,22.14
2022-09-28T08:58:12.265Z,22.86
2022-09-28T09:03:23.866Z,22.32
2022-09-28T09:34:30.461Z,22.92
2022-09-28T09:40:31.209Z,24.08
2022-09-28T09:46:04.002Z,24.18
2022-09-28T09:51:20.974Z,24.32
2022-09-28T09:56:32.310Z,24.46
2022-09-28T10:01:54.821Z,24.06
2022-09-28T10:07:24.909Z,24.20
2022-09-28T10:12:32.180Z,24.28
2022-09-28T10:17:38.929Z,24.60
2022-09-28T10:23:04.209Z,24.67
2022-09-28T10:28:17.973Z,24.19
2022-09-28T10:33:33.537Z,24.13
2022-09-28T10:38:38.050Z,24.36
2022-09-28T10:44:06.544Z,24.51
2022-09-28T10:49:37.463Z,25.42
2022-09-28T10:54:54.464Z,24.46
2022-09-28T11:00:01.716Z,25.54
2022-09-28T11:05:22.286Z,25.56
2022-09-28T11:10:30.105Z,25.25
2022-09-28T11:15:44.559Z,25.87
2022-09-28T11:21:11.446Z,25.23
2022-09-28T11:26:20.643Z,25.30
2022-09-28T11:31:30.617Z,26.37
2022-09-28T11:36:57.360Z,24.73
2022-09-28T11:42:18.730Z,24.09
2022-09-28T11:47:46.161Z,25.78
2022-09-28T11:52:58.408Z,26.11
2022-09-28T11:58:07.526Z,24.83
2022-09-28T12:03:17.466Z,23.96
2022-09-28T12:08:27.529Z,22.53
2022-09-28T12:13:35.566Z,22.29
2022-09-28T12:18:54.275Z,22.57
2022-09-28T12:24:05.004Z,21.28
2022-09-28T12:29:15.162Z,21.50
2022-09-28T12:34:20.631Z,22.31
2022-09-28T12:39:57.020Z,21.82
2022-09-28T12:45:22.882Z,21.67
2022-09-28T12:50:39.889Z,22.13
2022-09-28T12:55:56.531Z,21.31
2022-09-28T13:01:13.801Z,21.20
2022-09-28T13:06:36.143Z,23.00
2022-09-28T13:11:51.989Z,23.10
2022-09-28T13:17:01.771Z,22.38
2022-09-28T13:22:28.101Z,22.26
2022-09-28T13:27:35.897Z,21.82
2022-09-28T13:32:40.069Z,21.31
2022-09-28T13:37:45.478Z,21.31
2022-09-28T13:43:19.609Z,21.23
2022-09-28T13:48:35.435Z,20.95
2022-09-28T13:54:03.828Z,20.72
2022-09-28T13:59:17.525Z,20.51
2022-09-28T14:04:23.153Z,20.45
2022-09-28T14:09:42.276Z,20.34
2022-09-28T14:14:50.202Z,20.15
2022-09-28T14:19:56.642Z,19.98
2022-09-28T14:25:11.979Z,19.74
2022-09-28T14:30:23.427Z,19.56
2022-09-28T14:35:40.248Z,19.33
2022-09-28T14:41:13.852Z,19.13
2022-09-28T14:46:45.803Z,18.87
2022-09-28T14:52:12.142Z,18.68
2022-09-28T14:57:24.995Z,18.56
2022-09-28T15:02:33.116Z,18.40
2022-09-28T15:07:47.732Z,18.25
2022-09-28T15:12:54.075Z,18.06
2022-09-28T15:18:07.711Z,18.04
2022-09-28T15:23:26.752Z,17.92
2022-09-28T15:28:32.091Z,17.77
2022-09-28T15:33:54.386Z,17.57
2022-09-28T15:39:01.450Z,17.47
2022-09-28T15:44:20.290Z,17.38
2022-09-28T15:49:26.804Z,17.22
2022-09-28T15:54:43.317Z,16.99
2022-09-28T15:59:56.965Z,16.79
2022-09-28T16:05:04.660Z,16.47
2022-09-28T16:10:35.131Z,16.26
2022-09-28T16:15:42.467Z,15.94
2022-09-28T16:20:47.783Z,15.77
2022-09-28T16:25:54.745Z,15.62
2022-09-28T16:31:05.310Z,15.49
2022-09-28T16:36:13.861Z,15.38
2022-09-28T16:41:21.602Z,15.19
2022-09-28T16:46:36.361Z,15.08
2022-09-28T16:51:40.369Z,14.91
2022-09-28T16:56:44.340Z,14.88
2022-09-28T17:01:49.687Z,14.68
2022-09-28T17:06:54.660Z,14.68
2022-09-28T17:11:58.551Z,14.59
2022-09-28T17:17:09.828Z,14.54
2022-09-28T17:22:16.853Z,14.52
2022-09-28T17:27:21.696Z,14.45
2022-09-28T17:32:26.926Z,14.36
2022-09-28T17:37:30.872Z,14.37
2022-09-28T17:42:34.691Z,14.10
2022-09-28T17:47:40.066Z,14.12
2022-09-28T17:52:43.980Z,14.08
2022-09-28T17:57:48.024Z,14.02
2022-09-28T18:02:53.643Z,13.98
2022-09-28T18:07:58.808Z,13.97
2022-09-28T18:13:02.693Z,13.97
2022-09-28T18:18:09.584Z,13.90
2022-09-28T18:23:13.484Z,13.89
2022-09-28T18:28:17.358Z,13.86
2022-09-28T18:33:22.632Z,13.84
2022-09-28T18:38:26.590Z,14.04
2022-09-28T18:43:34.350Z,14.34
2022-09-28T18:48:41.812Z,14.66
2022-09-28T18:53:46.900Z,14.64
2022-09-28T18:58:52.639Z,14.58
2022-09-28T19:04:00.152Z,14.47
2022-09-28T19:09:05.406Z,14.50
2022-09-28T19:14:15.106Z,14.43
2022-09-28T19:19:23.531Z,14.46
2022-09-28T19:24:27.410Z,14.50
2022-09-28T19:29:31.323Z,14.52
2022-09-28T19:34:39.761Z,14.62
2022-09-28T19:39:43.643Z,14.47
2022-09-28T19:44:47.565Z,14.26
2022-09-28T19:49:52.843Z,14.18
2022-09-28T19:54:57.337Z,13.91
2022-09-28T20:00:03.569Z,13.85
2022-09-28T20:05:11.812Z,14.01
2022-09-28T20:10:16.214Z,14.19
2022-09-28T20:15:22.379Z,14.34
2022-09-28T20:20:27.988Z,14.26
2022-09-28T20:25:32.232Z,14.22
2022-09-28T20:30:37.424Z,14.21
2022-09-28T20:35:44.413Z,14.28
2022-09-28T20:40:48.354Z,14.00
2022-09-28T20:45:53.011Z,13.82
2022-09-28T20:51:03.112Z,13.91
2022-09-28T20:56:08.759Z,13.77
2022-09-28T21:01:17.201Z,13.36
2022-09-28T21:06:24.431Z,13.37
2022-09-28T21:11:29.734Z,13.08
2022-09-28T21:16:35.122Z,13.19
2022-09-28T21:21:40.375Z,13.01
2022-09-28T21:26:44.391Z,13.38
2022-09-28T21:31:48.658Z,13.50
2022-09-28T21:36:54.521Z,13.50
2022-09-28T21:41:58.525Z,13.66
2022-09-28T21:47:02.473Z,13.79
2022-09-28T21:52:07.790Z,13.68
2022-09-28T21:57:12.107Z,13.37
2022-09-28T22:02:15.978Z,13.31
2022-09-28T22:07:21.229Z,13.11
2022-09-28T22:12:25.106Z,12.98
2022-09-28T22:17:28.969Z,12.81
2022-09-28T22:22:34.363Z,12.50
2022-09-28T22:27:38.998Z,12.52
2022-09-28T22:32:42.919Z,12.48
2022-09-28T22:37:48.243Z,12.32
2022-09-28T22:42:52.224Z,12.78
2022-09-28T22:47:56.116Z,12.61
2022-09-28T22:53:02.049Z,12.37
2022-09-28T22:58:05.922Z,12.31
2022-09-28T23:03:09.996Z,12.24
2022-09-28T23:08:15.371Z,12.52
2022-09-28T23:13:19.456Z,12.57
2022-09-28T23:18:23.389Z,13.02
2022-09-28T23:23:28.760Z,12.55
2022-09-28T23:28:32.664Z,12.12
2022-09-28T23:33:36.555Z,11.99
2022-09-28T23:38:42.264Z,12.08
2022-09-28T23:43:46.344Z,12.44
2022-09-28T23:48:50.926Z,12.22
2022-09-28T23:53:56.139Z,11.90
2022-09-28T23:58:59.998Z,11.72
